createdAt,value
2023-05-12T00:02:10.593Z,20.64
2023-05-12T00:04:39.624Z,20.63
2023-05-12T00:07:09.044Z,20.63
2023-05-12T00:09:38.387Z,20.62
2023-05-12T00:12:06.963Z,20.61
2023-05-12T00:14:35.359Z,20.61
2023-05-12T00:17:03.961Z,20.60
2023-05-12T00:19:32.777Z,20.60
2023-05-12T00:22:02.039Z,20.60
2023-05-12T00:24:31.229Z,20.59
2023-05-12T00:27:00.152Z,20.59
2023-05-12T00:29:29.606Z,20.58
2023-05-12T00:31:59.017Z,20.58
2023-05-12T00:34:28.404Z,20.57
2023-05-12T00:36:56.765Z,20.57
2023-05-12T00:39:25.676Z,20.56
2023-05-12T00:41:53.786Z,20.57
2023-05-12T00:44:22.697Z,20.56
2023-05-12T00:46:51.772Z,20.55
2023-05-12T00:49:20.541Z,20.54
2023-05-12T00:51:48.974Z,20.55
2023-05-12T00:54:17.827Z,20.53
2023-05-12T00:56:46.734Z,20.53
2023-05-12T00:59:16.139Z,20.53
2023-05-12T01:01:45.200Z,20.54
2023-05-12T01:04:14.151Z,20.53
2023-05-12T01:06:42.628Z,20.52
2023-05-12T01:09:11.631Z,20.52
2023-05-12T01:11:40.095Z,20.52
2023-05-12T01:14:08.748Z,20.52
2023-05-12T01:16:38.679Z,20.50
2023-05-12T01:19:08.244Z,20.50
2023-05-12T01:21:37.740Z,20.50
2023-05-12T01:24:06.845Z,20.50
2023-05-12T01:26:36.467Z,20.50
2023-05-12T01:29:05.585Z,20.49
2023-05-12T01:31:34.621Z,20.47
2023-05-12T01:34:03.102Z,20.47
2023-05-12T01:36:31.742Z,20.46
2023-05-12T01:39:00.958Z,20.46
2023-05-12T01:41:30.153Z,20.46
2023-05-12T01:43:58.636Z,20.46
2023-05-12T01:46:27.280Z,20.45
2023-05-12T01:48:59.284Z,20.44
2023-05-12T01:51:29.392Z,20.45
2023-05-12T01:54:01.090Z,20.45
2023-05-12T01:56:34.355Z,20.44
2023-05-12T01:59:03.184Z,20.44
2023-05-12T02:01:32.206Z,20.43
2023-05-12T02:04:01.209Z,20.43
2023-05-12T02:06:30.480Z,20.43
2023-05-12T02:08:59.379Z,20.42
2023-05-12T02:11:28.729Z,20.42
2023-05-12T02:13:57.910Z,20.41
2023-05-12T02:16:26.728Z,20.41
2023-05-12T02:18:55.287Z,20.39
2023-05-12T02:21:23.843Z,20.38
2023-05-12T02:23:54.263Z,20.38
2023-05-12T02:26:23.675Z,20.38
2023-05-12T02:28:53.644Z,20.37
2023-05-12T02:31:23.218Z,20.37
2023-05-12T02:33:52.634Z,20.37
2023-05-12T02:36:21.714Z,20.37
2023-05-12T02:38:51.137Z,20.37
2023-05-12T02:41:20.034Z,20.36
2023-05-12T02:43:49.206Z,20.34
2023-05-12T02:46:19.353Z,20.35
2023-05-12T02:48:48.330Z,20.35
2023-05-12T02:51:17.235Z,20.34
2023-05-12T02:53:46.016Z,20.33
2023-05-12T02:56:14.467Z,20.34
2023-05-12T02:58:42.894Z,20.33
2023-05-12T03:01:12.005Z,20.33
2023-05-12T03:03:42.172Z,20.33
2023-05-12T03:06:11.497Z,20.32
2023-05-12T03:08:40.240Z,20.32
2023-05-12T03:11:08.605Z,20.32
2023-05-12T03:13:37.112Z,20.31
2023-05-12T03:16:06.054Z,20.31
2023-05-12T03:18:34.525Z,20.32
2023-05-12T03:21:03.542Z,20.32
2023-05-12T03:23:32.463Z,20.30
2023-05-12T03:26:00.550Z,20.31
2023-05-12T03:28:28.843Z,20.29
2023-05-12T03:30:57.821Z,20.29
2023-05-12T03:33:26.993Z,20.29
2023-05-12T03:35:56.255Z,20.28
2023-05-12T03:38:25.169Z,20.29
2023-05-12T03:40:53.450Z,20.29
2023-05-12T03:43:22.600Z,20.29
2023-05-12T03:45:51.504Z,20.28
2023-05-12T03:48:20.768Z,20.27
2023-05-12T03:50:49.230Z,20.28
2023-05-12T03:53:18.547Z,20.28
2023-05-12T03:55:47.504Z,20.27
2023-05-12T03:58:16.423Z,20.27
2023-05-12T04:00:45.398Z,20.28
2023-05-12T04:03:13.922Z,20.27
2023-05-12T04:05:42.962Z,20.27
2023-05-12T04:08:11.535Z,20.26
2023-05-12T04:10:40.027Z,20.27
2023-05-12T04:13:08.977Z,20.27
2023-05-12T04:15:37.879Z,20.27
2023-05-12T04:18:06.697Z,20.27
2023-05-12T04:20:35.062Z,20.28
2023-05-12T04:23:03.581Z,20.27
2023-05-12T04:25:32.665Z,20.29
2023-05-12T04:28:01.653Z,20.30
2023-05-12T04:30:30.646Z,20.29
2023-05-12T04:33:00.786Z,20.29
2023-05-12T04:35:29.746Z,20.30
2023-05-12T04:37:58.834Z,20.30
2023-05-12T04:40:27.833Z,20.31
2023-05-12T04:42:56.956Z,20.31
2023-05-12T04:45:26.194Z,20.32
2023-05-12T04:47:54.600Z,20.31
2023-05-12T04:50:23.466Z,20.32
2023-05-12T04:52:52.288Z,20.33
2023-05-12T04:55:21.705Z,20.35
2023-05-12T04:57:50.865Z,20.36
2023-05-12T05:00:20.364Z,20.36
2023-05-12T05:02:50.085Z,20.37
2023-05-12T05:05:18.872Z,20.37
2023-05-12T05:07:47.601Z,20.39
2023-05-12T05:10:16.011Z,20.41
2023-05-12T05:12:46.010Z,20.42
2023-05-12T05:15:15.103Z,20.44
2023-05-12T05:17:43.675Z,20.44
2023-05-12T05:20:15.443Z,20.43
2023-05-12T05:22:45.843Z,20.45
2023-05-12T05:25:15.540Z,20.47
2023-05-12T05:27:44.634Z,20.47
2023-05-12T05:30:12.711Z,20.49
2023-05-12T05:32:43.328Z,20.51
2023-05-12T05:35:13.302Z,20.51
2023-05-12T05:37:46.488Z,20.53
2023-05-12T05:40:15.629Z,20.56
2023-05-12T05:42:44.595Z,20.59
2023-05-12T05:45:13.230Z,20.63
2023-05-12T05:47:42.579Z,20.67
2023-05-12T05:50:11.566Z,20.70
2023-05-12T05:52:42.168Z,20.73
2023-05-12T05:55:11.593Z,20.76
2023-05-12T05:57:40.593Z,20.78
2023-05-12T06:00:08.364Z,20.82
2023-05-12T06:02:45.708Z,20.85
2023-05-12T06:05:18.966Z,20.90
2023-05-12T06:07:48.103Z,20.97
2023-05-12T06:10:17.188Z,21.03
2023-05-12T06:12:46.176Z,21.08
2023-05-12T06:15:15.901Z,21.12
2023-05-12T06:17:44.410Z,21.15
2023-05-12T06:20:12.902Z,21.18
2023-05-12T06:22:42.206Z,21.20
2023-05-12T06:25:11.179Z,21.23
2023-05-12T06:27:39.601Z,21.26
2023-05-12T06:30:08.036Z,21.30
2023-05-12T06:32:36.903Z,21.34
2023-05-12T06:35:06.283Z,21.37
2023-05-12T06:37:34.752Z,21.41
2023-05-12T06:40:03.859Z,21.44
2023-05-12T06:42:32.394Z,21.47
2023-05-12T06:45:03.918Z,21.51
2023-05-12T06:47:33.692Z,21.52
2023-05-12T06:50:02.561Z,21.53
2023-05-12T06:52:31.871Z,21.58
2023-05-12T06:55:00.413Z,21.64
2023-05-12T06:57:28.535Z,21.72
2023-05-12T06:59:57.230Z,21.79
2023-05-12T07:02:26.173Z,21.87
2023-05-12T07:04:55.526Z,21.92
2023-05-12T07:07:24.469Z,21.97
2023-05-12T07:09:53.825Z,22.02
2023-05-12T07:12:23.070Z,22.06
2023-05-12T07:14:52.401Z,22.08
2023-05-12T07:17:21.528Z,22.12
2023-05-12T07:19:49.869Z,22.16
2023-05-12T07:22:19.178Z,22.21
2023-05-12T07:24:48.620Z,22.28
2023-05-12T07:27:18.037Z,22.34
2023-05-12T07:29:46.988Z,22.43
2023-05-12T07:32:16.404Z,22.49
2023-05-12T07:34:45.350Z,22.57
2023-05-12T07:37:14.109Z,22.69
2023-05-12T07:39:42.853Z,22.83
2023-05-12T07:42:11.693Z,22.95
2023-05-12T07:44:40.628Z,23.09
2023-05-12T07:47:10.500Z,23.18
2023-05-12T07:49:39.875Z,23.27
2023-05-12T07:52:08.636Z,23.32
2023-05-12T07:54:37.384Z,23.37
2023-05-12T07:57:06.699Z,23.46
2023-05-12T07:59:35.400Z,23.55
2023-05-12T08:02:04.697Z,23.64
2023-05-12T08:04:33.589Z,23.71
2023-05-12T08:07:03.015Z,23.78
2023-05-12T08:09:31.871Z,23.84
2023-05-12T08:12:00.616Z,23.93
2023-05-12T08:14:29.815Z,24.03
2023-05-12T08:16:59.162Z,24.12
2023-05-12T08:19:28.462Z,24.20
2023-05-12T08:21:57.357Z,24.29
2023-05-12T08:24:26.773Z,24.42
2023-05-12T08:26:55.817Z,24.58
2023-05-12T08:29:25.184Z,24.82
2023-05-12T08:31:58.135Z,25.19
2023-05-12T08:34:26.420Z,25.55
2023-05-12T08:36:54.586Z,25.88
2023-05-12T08:39:23.486Z,26.16
2023-05-12T08:41:52.097Z,26.33
2023-05-12T08:44:21.477Z,26.47
2023-05-12T08:46:50.073Z,26.56
2023-05-12T08:49:18.368Z,26.59
2023-05-12T08:51:56.492Z,26.63
2023-05-12T08:54:25.904Z,26.86
2023-05-12T08:59:25.733Z,27.51
2023-05-12T09:01:55.194Z,27.58
2023-05-12T09:04:24.219Z,27.51
2023-05-12T09:06:55.534Z,27.34
2023-05-12T09:09:25.014Z,27.09
2023-05-12T09:11:53.827Z,26.81
2023-05-12T09:14:23.035Z,26.65
2023-05-12T09:16:52.317Z,26.59
2023-05-12T09:19:21.215Z,26.48
2023-05-12T09:21:50.075Z,26.41
2023-05-12T09:24:19.350Z,26.40
2023-05-12T09:26:48.727Z,26.43
2023-05-12T09:29:30.751Z,26.48
2023-05-12T09:32:00.915Z,26.60
2023-05-12T09:34:29.712Z,26.75
2023-05-12T09:36:58.662Z,26.92
2023-05-12T09:39:27.499Z,27.10
2023-05-12T09:41:56.838Z,27.22
2023-05-12T09:44:26.043Z,27.26
2023-05-12T09:46:54.879Z,27.29
2023-05-12T09:49:23.682Z,27.23
2023-05-12T09:51:52.465Z,27.17
2023-05-12T09:54:21.746Z,27.18
2023-05-12T09:56:50.990Z,27.20
2023-05-12T09:59:20.534Z,27.16
2023-05-12T10:01:49.971Z,27.14
2023-05-12T10:04:19.395Z,27.18
2023-05-12T10:06:48.815Z,27.28
2023-05-12T10:09:17.747Z,27.31
2023-05-12T10:11:46.333Z,27.30
2023-05-12T10:14:15.390Z,27.34
2023-05-12T10:16:43.648Z,27.42
2023-05-12T10:19:13.042Z,27.56
2023-05-12T10:21:42.475Z,27.66
2023-05-12T10:24:11.304Z,27.68
2023-05-12T10:26:40.325Z,27.70
2023-05-12T10:29:09.730Z,27.76
2023-05-12T10:31:38.705Z,27.85
2023-05-12T10:34:07.699Z,27.93
2023-05-12T10:36:37.028Z,27.98
2023-05-12T10:39:06.343Z,27.95
2023-05-12T10:41:35.435Z,27.98
2023-05-12T10:44:03.588Z,28.01
2023-05-12T10:46:32.597Z,28.09
2023-05-12T10:49:00.958Z,28.18
2023-05-12T10:51:29.609Z,28.31
2023-05-12T10:53:58.829Z,28.47
2023-05-12T10:56:28.482Z,28.64
2023-05-12T10:58:58.380Z,28.86
2023-05-12T11:01:28.075Z,29.02
2023-05-12T11:03:58.286Z,28.97
2023-05-12T11:06:27.911Z,28.75
2023-05-12T11:08:58.860Z,28.53
2023-05-12T11:11:28.106Z,28.38
2023-05-12T11:13:57.396Z,28.26
2023-05-12T11:16:26.772Z,28.21
2023-05-12T11:18:56.151Z,28.27
2023-05-12T11:21:25.136Z,28.55
2023-05-12T11:23:53.695Z,29.30
2023-05-12T11:26:22.411Z,30.28
2023-05-12T11:28:51.756Z,31.17
2023-05-12T11:31:21.172Z,31.76
2023-05-12T11:33:56.052Z,32.20
2023-05-12T11:36:33.998Z,32.37
2023-05-12T11:39:03.312Z,32.76
2023-05-12T11:41:32.708Z,33.04
2023-05-12T11:44:02.031Z,33.38
2023-05-12T11:46:32.371Z,33.56
2023-05-12T11:49:02.737Z,33.31
2023-05-12T11:51:31.592Z,32.99
2023-05-12T11:54:00.366Z,32.81
2023-05-12T11:56:29.583Z,32.53
2023-05-12T11:58:58.510Z,32.16
2023-05-12T12:01:27.785Z,31.85
2023-05-12T12:03:57.289Z,31.61
2023-05-12T12:06:26.203Z,31.40
2023-05-12T12:08:56.423Z,31.23
2023-05-12T12:11:26.721Z,30.99
2023-05-12T12:13:55.666Z,30.90
2023-05-12T12:16:24.530Z,30.64
2023-05-12T12:18:53.931Z,30.61
2023-05-12T12:21:22.762Z,30.84
2023-05-12T12:23:52.023Z,31.08
2023-05-12T12:26:21.253Z,31.29
2023-05-12T12:28:50.507Z,31.38
2023-05-12T12:31:19.953Z,31.32
2023-05-12T12:33:49.008Z,31.12
2023-05-12T12:36:17.514Z,30.85
2023-05-12T12:38:45.739Z,30.61
2023-05-12T12:41:14.662Z,30.39
2023-05-12T12:43:44.084Z,30.14
2023-05-12T12:46:13.466Z,29.93
2023-05-12T12:48:42.861Z,29.74
2023-05-12T12:51:12.138Z,29.49
2023-05-12T12:53:41.444Z,29.31
2023-05-12T12:56:10.825Z,29.19
2023-05-12T12:58:40.105Z,29.13
2023-05-12T13:01:08.983Z,29.11
2023-05-12T13:03:38.387Z,29.08
2023-05-12T13:06:07.079Z,29.09
2023-05-12T13:08:36.371Z,29.11
2023-05-12T13:11:05.782Z,29.14
2023-05-12T13:13:34.679Z,29.20
2023-05-12T13:16:03.914Z,29.22
2023-05-12T13:18:32.805Z,29.23
2023-05-12T13:21:02.055Z,29.11
2023-05-12T13:23:30.957Z,28.92
2023-05-12T13:25:59.560Z,28.84
2023-05-12T13:28:28.236Z,28.88
2023-05-12T13:30:57.748Z,28.91
2023-05-12T13:33:27.148Z,29.07
2023-05-12T13:35:56.449Z,29.62
2023-05-12T13:38:25.278Z,30.57
2023-05-12T13:40:54.541Z,31.71
2023-05-12T13:43:23.739Z,32.64
2023-05-12T13:45:52.629Z,33.06
2023-05-12T13:48:21.889Z,32.64
2023-05-12T13:50:50.684Z,31.92
2023-05-12T13:53:19.538Z,31.24
2023-05-12T13:55:48.614Z,30.59
2023-05-12T13:58:17.393Z,30.07
2023-05-12T14:00:46.757Z,29.69
2023-05-12T14:03:16.042Z,29.46
2023-05-12T14:05:45.247Z,29.29
2023-05-12T14:08:14.057Z,29.08
2023-05-12T14:10:43.418Z,28.86
2023-05-12T14:13:12.815Z,28.64
2023-05-12T14:15:48.807Z,28.41
2023-05-12T14:18:18.645Z,28.16
2023-05-12T14:20:47.942Z,27.90
2023-05-12T14:23:17.017Z,27.67
2023-05-12T14:25:44.936Z,27.48
2023-05-12T14:28:13.803Z,27.31
2023-05-12T14:30:43.277Z,27.14
2023-05-12T14:33:12.723Z,26.94
2023-05-12T14:35:43.241Z,26.77
2023-05-12T14:38:14.050Z,26.64
2023-05-12T14:40:43.525Z,26.51
2023-05-12T14:43:13.027Z,26.39
2023-05-12T14:45:41.876Z,26.30
2023-05-12T14:48:11.156Z,26.25
2023-05-12T14:50:39.451Z,26.18
2023-05-12T14:53:08.728Z,26.10
2023-05-12T14:55:37.959Z,26.00
2023-05-12T14:58:07.064Z,25.95
2023-05-12T15:00:35.712Z,25.94
2023-05-12T15:03:05.058Z,25.92
2023-05-12T15:05:52.553Z,25.90
2023-05-12T15:08:21.776Z,25.81
2023-05-12T15:10:51.144Z,25.74
2023-05-12T15:13:20.034Z,25.69
2023-05-12T15:15:50.230Z,25.68
2023-05-12T15:18:20.374Z,25.70
2023-05-12T15:20:49.203Z,25.71
2023-05-12T15:23:18.732Z,25.69
2023-05-12T15:25:47.903Z,25.70
2023-05-12T15:28:16.554Z,25.70
2023-05-12T15:30:45.795Z,25.70
2023-05-12T15:33:15.013Z,25.67
2023-05-12T15:35:47.845Z,25.57
2023-05-12T15:38:16.610Z,25.41
2023-05-12T15:40:45.462Z,25.26
2023-05-12T15:43:14.722Z,25.13
2023-05-12T15:45:43.984Z,24.97
2023-05-12T15:48:13.391Z,24.84
2023-05-12T15:50:42.688Z,24.67
2023-05-12T15:53:11.872Z,24.54
2023-05-12T15:55:40.709Z,24.40
2023-05-12T15:58:10.035Z,24.26
2023-05-12T16:00:39.351Z,24.15
2023-05-12T16:03:08.777Z,24.05
2023-05-12T16:05:37.797Z,23.98
2023-05-12T16:08:06.689Z,23.93
2023-05-12T16:10:35.984Z,23.89
2023-05-12T16:13:05.397Z,23.88
2023-05-12T16:15:34.293Z,23.86
2023-05-12T16:18:03.244Z,23.85
2023-05-12T16:20:32.562Z,23.83
2023-05-12T16:23:02.089Z,23.82
2023-05-12T16:25:31.056Z,23.82
2023-05-12T16:27:59.922Z,23.81
2023-05-12T16:30:29.147Z,23.79
2023-05-12T16:32:57.978Z,23.77
2023-05-12T16:35:27.050Z,23.73
2023-05-12T16:37:55.881Z,23.69
2023-05-12T16:40:25.049Z,23.66
2023-05-12T16:42:53.868Z,23.66
2023-05-12T16:45:23.537Z,23.66
2023-05-12T16:47:52.965Z,23.68
2023-05-12T16:50:21.417Z,23.68
2023-05-12T16:52:56.583Z,23.66
2023-05-12T16:55:25.791Z,23.66
2023-05-12T16:57:54.845Z,23.66
2023-05-12T17:00:23.052Z,23.65
2023-05-12T17:02:52.366Z,23.64
2023-05-12T17:05:21.967Z,23.61
2023-05-12T17:07:51.304Z,23.61
2023-05-12T17:10:20.627Z,23.58
2023-05-12T17:12:49.995Z,23.56
2023-05-12T17:15:19.281Z,23.52
2023-05-12T17:17:48.656Z,23.50
2023-05-12T17:20:18.085Z,23.48
2023-05-12T17:22:47.647Z,23.46
2023-05-12T17:25:16.999Z,23.41
2023-05-12T17:27:45.902Z,23.38
2023-05-12T17:30:14.823Z,23.34
2023-05-12T17:32:43.715Z,23.33
2023-05-12T17:35:13.175Z,23.29
2023-05-12T17:37:42.075Z,23.27
2023-05-12T17:40:11.540Z,23.26
2023-05-12T17:42:40.645Z,23.25
2023-05-12T17:45:09.095Z,23.24
2023-05-12T17:47:37.779Z,23.24
2023-05-12T17:50:07.126Z,23.22
2023-05-12T17:52:36.315Z,23.20
2023-05-12T17:55:05.579Z,23.19
2023-05-12T17:57:34.998Z,23.17
2023-05-12T18:00:03.875Z,23.16
2023-05-12T18:02:41.854Z,23.13
2023-05-12T18:05:10.761Z,23.12
2023-05-12T18:07:40.198Z,23.10
2023-05-12T18:10:09.542Z,23.07
2023-05-12T18:12:38.436Z,23.04
2023-05-12T18:15:07.836Z,23.01
2023-05-12T18:17:37.370Z,22.99
2023-05-12T18:20:06.493Z,22.96
2023-05-12T18:22:34.475Z,22.95
2023-05-12T18:25:03.147Z,22.93
2023-05-12T18:27:32.435Z,22.90
2023-05-12T18:30:01.432Z,22.90
2023-05-12T18:32:30.128Z,22.87
2023-05-12T18:34:59.447Z,22.85
2023-05-12T18:37:28.667Z,22.82
2023-05-12T18:39:57.849Z,22.81
2023-05-12T18:42:26.972Z,22.80
2023-05-12T18:44:55.796Z,22.78
2023-05-12T18:47:24.961Z,22.77
2023-05-12T18:49:54.284Z,22.75
2023-05-12T18:52:23.183Z,22.74
2023-05-12T18:54:51.934Z,22.73
2023-05-12T18:57:21.170Z,22.71
2023-05-12T18:59:50.060Z,22.70
2023-05-12T19:02:19.541Z,22.68
2023-05-12T19:04:48.711Z,22.66
2023-05-12T19:07:16.982Z,22.65
2023-05-12T19:09:46.242Z,22.63
2023-05-12T19:12:19.396Z,22.61
2023-05-12T19:14:48.204Z,22.59
2023-05-12T19:17:17.081Z,22.58
2023-05-12T19:19:46.456Z,22.57
2023-05-12T19:22:15.713Z,22.56
2023-05-12T19:24:45.172Z,22.54
2023-05-12T19:27:14.330Z,22.52
2023-05-12T19:29:42.633Z,22.51
2023-05-12T19:32:11.014Z,22.50
2023-05-12T19:34:40.492Z,22.49
2023-05-12T19:37:09.900Z,22.47
2023-05-12T19:39:39.360Z,22.45
2023-05-12T19:42:08.704Z,22.43
2023-05-12T19:44:37.996Z,22.41
2023-05-12T19:47:07.409Z,22.40
2023-05-12T19:49:36.107Z,22.38
2023-05-12T19:52:04.992Z,22.38
2023-05-12T19:54:33.935Z,22.36
2023-05-12T19:57:02.727Z,22.36
2023-05-12T19:59:31.643Z,22.33
2023-05-12T20:02:00.987Z,22.33
2023-05-12T20:04:30.376Z,22.31
2023-05-12T20:06:59.353Z,22.30
2023-05-12T20:09:29.016Z,22.28
2023-05-12T20:11:58.252Z,22.27
2023-05-12T20:14:27.052Z,22.25
2023-05-12T20:16:55.925Z,22.24
2023-05-12T20:19:25.294Z,22.21
2023-05-12T20:21:54.713Z,22.22
2023-05-12T20:24:23.422Z,22.20
2023-05-12T20:26:51.968Z,22.19
2023-05-12T20:29:20.921Z,22.19
2023-05-12T20:31:49.107Z,22.19
2023-05-12T20:34:18.044Z,22.19
2023-05-12T20:36:47.310Z,22.18
2023-05-12T20:39:16.203Z,22.16
2023-05-12T20:41:44.981Z,22.17
2023-05-12T20:44:14.281Z,22.17
2023-05-12T20:46:43.188Z,22.16
2023-05-12T20:49:12.386Z,22.14
2023-05-12T20:51:41.663Z,22.15
2023-05-12T20:54:11.078Z,22.14
2023-05-12T20:56:40.508Z,22.14
2023-05-12T20:59:09.401Z,22.12
2023-05-12T21:01:38.475Z,22.11
2023-05-12T21:04:07.208Z,22.10
2023-05-12T21:06:36.488Z,22.09
2023-05-12T21:09:05.470Z,22.10
2023-05-12T21:11:33.837Z,22.08
2023-05-12T21:14:02.063Z,22.07
2023-05-12T21:16:31.480Z,22.07
2023-05-12T21:19:00.870Z,22.06
2023-05-12T21:21:30.267Z,22.06
2023-05-12T21:23:59.569Z,22.05
2023-05-12T21:26:28.796Z,22.04
2023-05-12T21:28:57.771Z,22.03
2023-05-12T21:31:26.936Z,22.02
2023-05-12T21:33:56.223Z,22.01
2023-05-12T21:36:25.591Z,22.01
2023-05-12T21:38:54.997Z,22.00
2023-05-12T21:41:24.371Z,21.99
2023-05-12T21:43:53.143Z,21.97
2023-05-12T21:46:22.111Z,21.97
2023-05-12T21:48:50.234Z,21.96
2023-05-12T21:51:19.505Z,21.96
2023-05-12T21:53:48.919Z,21.95
2023-05-12T21:56:18.284Z,21.94
2023-05-12T21:58:47.662Z,21.92
2023-05-12T22:01:16.616Z,21.92
2023-05-12T22:03:45.889Z,21.92
2023-05-12T22:06:14.767Z,21.91
2023-05-12T22:08:43.389Z,21.91
2023-05-12T22:11:12.130Z,21.89
2023-05-12T22:13:41.356Z,21.88
2023-05-12T22:16:10.519Z,21.88
2023-05-12T22:18:38.743Z,21.87
2023-05-12T22:21:08.173Z,21.87
2023-05-12T22:23:37.689Z,21.86
2023-05-12T22:26:07.156Z,21.85
2023-05-12T22:28:36.029Z,21.85
2023-05-12T22:31:05.248Z,21.85
2023-05-12T22:33:34.653Z,21.84
2023-05-12T22:36:03.125Z,21.84
2023-05-12T22:38:31.793Z,21.84
2023-05-12T22:41:00.671Z,21.81
2023-05-12T22:43:29.984Z,21.81
2023-05-12T22:45:59.033Z,21.81
2023-05-12T22:48:28.016Z,21.80
2023-05-12T22:50:57.856Z,21.80
2023-05-12T22:53:27.114Z,21.80
2023-05-12T22:55:56.439Z,21.78
2023-05-12T22:58:25.807Z,21.78
2023-05-12T23:00:54.657Z,21.78
2023-05-12T23:03:23.850Z,21.78
2023-05-12T23:05:53.257Z,21.79
2023-05-12T23:08:22.129Z,21.76
2023-05-12T23:10:51.468Z,21.77
2023-05-12T23:13:20.268Z,21.76
2023-05-12T23:15:49.015Z,21.75
2023-05-12T23:18:18.292Z,21.74
2023-05-12T23:20:47.165Z,21.74
2023-05-12T23:23:16.506Z,21.75
2023-05-12T23:25:45.760Z,21.74
2023-05-12T23:28:14.703Z,21.72
2023-05-12T23:30:43.228Z,21.72
2023-05-12T23:33:12.626Z,21.72
2023-05-12T23:35:41.378Z,21.73
2023-05-12T23:38:10.173Z,21.72
2023-05-12T23:40:39.223Z,21.71
2023-05-12T23:43:07.281Z,21.71
2023-05-12T23:45:35.842Z,21.70
2023-05-12T23:48:04.986Z,21.69
2023-05-12T23:50:33.803Z,21.68
2023-05-12T23:53:02.494Z,21.68
2023-05-12T23:55:31.759Z,21.68
2023-05-12T23:58:01.000Z,21.66
